Llano — WDF9589 — position and weather

sailwx.info

Track history (hours):
 
Tides and Currents Weather Stations Pressure Air Temp Water Temp Dewpoint Dewpoint Depression Visibility Wind Speed Wind Dir Waves Ship Positions

Llano

Owner: Kirby Inland Marine LP, Houton, TX. More information available from US FCC via Universal Licensing System and Coast Guard Vessel Documentation Center.

Last reported at 2017-Dec-11 13:21 UTC. Time now 2017-Dec-12 19:56 UTC.
Position N 29°47' W 095°04'.

Length 27 m; draft 3.5 m.

Type: . MMSI: 367506740.

Date/timePositionNaut miles runAvg speedWind from/ knotsBaromVisibWave heightAir tempDewpointWater temp
2017-Dec-11 13:21N 29°47' W 095°04'0 0.0
2017-Dec-11 12:51N 29°47' W 095°04'0 0.0
2017-Dec-11 12:27N 29°47' W 095°04'0 0.0
2017-Dec-11 11:57N 29°47' W 095°04'0 0.0
2017-Dec-11 08:54N 29°47' W 095°04'0 0.0
2017-Dec-10 15:36N 29°47' W 095°04'0 0.0
2017-Dec-10 15:17N 29°47' W 095°04'0 0.0
2017-Dec-10 13:50N 29°47' W 095°04'0 0.0
2017-Dec-10 13:15N 29°47' W 095°04'0 0.0
2017-Dec-10 12:42N 29°47' W 095°04'0 0.0
2017-Dec-10 12:29N 29°47' W 095°04'0 0.0
2017-Dec-10 11:53N 29°47' W 095°04'0 0.0
2017-Dec-10 11:23N 29°47' W 095°04'0 0.0
2017-Dec-10 10:54N 29°47' W 095°04'0 0.0
2017-Dec-10 10:23N 29°47' W 095°04'0 0.0
2017-Dec-10 10:00N 29°47' W 095°04'0 0.0
2017-Dec-10 09:27N 29°47' W 095°04'0 0.0
2017-Dec-10 08:56N 29°47' W 095°04'0 0.0
2017-Dec-10 05:11N 29°47' W 095°04'1 4.0
2017-Dec-10 04:59N 29°46' W 095°05'1 1.7
2017-Dec-10 04:29N 29°46' W 095°06'0 0.0
2017-Dec-10 03:56N 29°46' W 095°06'0 0.0
2017-Dec-10 02:51N 29°46' W 095°06'0 0.0
2017-Dec-10 02:29N 29°46' W 095°06'0 0.9
2017-Dec-10 02:00N 29°45' W 095°06'0 0.0
2017-Dec-10 01:30N 29°45' W 095°06'0 0.0
2017-Dec-10 01:01N 29°45' W 095°06'0 0.0
2017-Dec-10 00:30N 29°45' W 095°06'0 0.0
2017-Dec-10 00:00N 29°45' W 095°06'0 0.0
2017-Dec-09 23:28N 29°45' W 095°06'2 4.2
2017-Dec-09 22:58N 29°44' W 095°08'3 7.4
2017-Dec-09 22:30N 29°45' W 095°11'3 6.3
2017-Dec-09 22:01N 29°43' W 095°15'2 3.1
2017-Dec-09 21:30N 29°43' W 095°16'0 0.0
2017-Dec-09 20:48N 29°43' W 095°16'0 0.0
2017-Dec-09 20:24N 29°43' W 095°16'0 0.0
2017-Dec-09 19:57N 29°43' W 095°16'0 0.0
2017-Dec-09 19:30N 29°43' W 095°16'0 0.0
2017-Dec-09 19:00N 29°43' W 095°16'0 0.0
2017-Dec-09 18:27N 29°43' W 095°16'0 0.0
2017-Dec-09 18:00N 29°43' W 095°16'0 0.0
2017-Dec-09 17:24N 29°43' W 095°16'0 0.0
2017-Dec-09 17:00N 29°43' W 095°16'4 6.7
2017-Dec-09 16:27N 29°44' W 095°12'3 7.5
2017-Dec-09 16:00N 29°44' W 095°08'4 4.0
2017-Dec-09 14:53N 29°47' W 095°04'0 0.0
2017-Dec-09 14:20N 29°47' W 095°04'0 0.0
2017-Dec-09 13:44N 29°47' W 095°04'0 0.0
2017-Dec-09 13:29N 29°47' W 095°04'0 0.0
2017-Dec-09 12:56N 29°47' W 095°04'0 0.0
2017-Dec-09 11:32N 29°47' W 095°04'0 0.0
2017-Dec-09 08:26N 29°47' W 095°04'0 0.3
2017-Dec-09 07:59N 29°47' W 095°04'0 0.8
2017-Dec-09 07:28N 29°47' W 095°04'0 0.5
2017-Dec-09 06:45N 29°47' W 095°04'0 0.0
2017-Dec-08 23:25N 29°47' W 095°04'0 0.1
2017-Dec-08 23:00N 29°47' W 095°04'1 2.4
2017-Dec-08 22:30N 29°46' W 095°05'2 4.7
2017-Dec-08 22:00N 29°44' W 095°03'2 4.6
2017-Dec-08 21:30N 29°42' W 095°01'2 4.2
2017-Dec-08 21:00N 29°41' W 094°59'3 7.0
2017-Dec-08 20:31N 29°38' W 094°58'4 7.3
2017-Dec-08 20:00N 29°35' W 094°56'3 7.0
2017-Dec-08 19:30N 29°32' W 094°54'70 2.3
2017-Dec-07 13:01N 30°04' W 093°42'0 5.8
2017-Dec-07 13:00N 30°04' W 093°42'2 3.7
2017-Dec-07 12:30N 30°04' W 093°40'3 5.2
2017-Dec-07 12:00N 30°04' W 093°37'3 5.2
2017-Dec-07 11:30N 30°04' W 093°34'3 5.3
2017-Dec-07 11:00N 30°04' W 093°31'3 5.4
2017-Dec-07 10:30N 30°04' W 093°27'3 5.4
2017-Dec-07 10:00N 30°04' W 093°24'2 4.8
2017-Dec-07 09:30N 30°04' W 093°21'2 4.0
2017-Dec-07 09:00N 30°05' W 093°20'1 2.8
2017-Dec-07 08:30N 30°06' W 093°19'0 0.0
2017-Dec-07 08:00N 30°06' W 093°19'0 0.1
2017-Dec-07 07:31N 30°06' W 093°19'0 0.0
2017-Dec-07 07:00N 30°06' W 093°19'0 0.0
2017-Dec-07 06:30N 30°06' W 093°19'0 0.2
2017-Dec-07 06:00N 30°06' W 093°19'1 1.5
2017-Dec-07 05:30N 30°06' W 093°18'1 1.8
2017-Dec-07 05:00N 30°05' W 093°17'1 2.8
2017-Dec-07 04:30N 30°04' W 093°16'1 1.5
2017-Dec-07 04:00N 30°03' W 093°16'0 0.0
2017-Dec-07 03:30N 30°03' W 093°16'0 0.0
2017-Dec-07 03:00N 30°03' W 093°16'0 0.0
2017-Dec-07 02:30N 30°03' W 093°16'0 0.0
2017-Dec-07 02:00N 30°03' W 093°16'1 0.3
2017-Dec-06 23:11N 30°02' W 093°16'0 2.5
2017-Dec-06 23:00N 30°02' W 093°15'1 1.3
2017-Dec-06 22:30N 30°02' W 093°15'0 0.1
2017-Dec-06 22:00N 30°02' W 093°15'0 0.0
2017-Dec-06 21:30N 30°02' W 093°15'0 0.0
2017-Dec-06 21:00N 30°02' W 093°15'  
2017-Dec-04 05:05N 29°60' W 090°25'0 0.0
2017-Dec-04 03:53N 29°60' W 090°25'  
Track history (hours):
 
Tides and Currents Weather Stations Pressure Air Temp Water Temp Dewpoint Dewpoint Depression Visibility Wind Speed Wind Dir Waves Ship Positions

Llano

Owner: Kirby Inland Marine LP, Houton, TX. More information available from US FCC via Universal Licensing System and Coast Guard Vessel Documentation Center.

Last reported at 2017-Dec-11 13:21 UTC. Time now 2017-Dec-12 19:56 UTC.
Position N 29°47' W 095°04'.

Length 27 m; draft 3.5 m.

Type: . MMSI: 367506740.

Date/timePositionNaut miles runAvg speedWind from/ knotsBaromVisibWave heightAir tempDewpointWater temp
2017-Dec-11 13:21N 29°47' W 095°04'0 0.0
2017-Dec-11 12:51N 29°47' W 095°04'0 0.0
2017-Dec-11 12:27N 29°47' W 095°04'0 0.0
2017-Dec-11 11:57N 29°47' W 095°04'0 0.0
2017-Dec-11 08:54N 29°47' W 095°04'0 0.0
2017-Dec-10 15:36N 29°47' W 095°04'0 0.0
2017-Dec-10 15:17N 29°47' W 095°04'0 0.0
2017-Dec-10 13:50N 29°47' W 095°04'0 0.0
2017-Dec-10 13:15N 29°47' W 095°04'0 0.0
2017-Dec-10 12:42N 29°47' W 095°04'0 0.0
2017-Dec-10 12:29N 29°47' W 095°04'0 0.0
2017-Dec-10 11:53N 29°47' W 095°04'0 0.0
2017-Dec-10 11:23N 29°47' W 095°04'0 0.0
2017-Dec-10 10:54N 29°47' W 095°04'0 0.0
2017-Dec-10 10:23N 29°47' W 095°04'0 0.0
2017-Dec-10 10:00N 29°47' W 095°04'0 0.0
2017-Dec-10 09:27N 29°47' W 095°04'0 0.0
2017-Dec-10 08:56N 29°47' W 095°04'0 0.0
2017-Dec-10 05:11N 29°47' W 095°04'1 4.0
2017-Dec-10 04:59N 29°46' W 095°05'1 1.7
2017-Dec-10 04:29N 29°46' W 095°06'0 0.0
2017-Dec-10 03:56N 29°46' W 095°06'0 0.0
2017-Dec-10 02:51N 29°46' W 095°06'0 0.0
2017-Dec-10 02:29N 29°46' W 095°06'0 0.9
2017-Dec-10 02:00N 29°45' W 095°06'0 0.0
2017-Dec-10 01:30N 29°45' W 095°06'0 0.0
2017-Dec-10 01:01N 29°45' W 095°06'0 0.0
2017-Dec-10 00:30N 29°45' W 095°06'0 0.0
2017-Dec-10 00:00N 29°45' W 095°06'0 0.0
2017-Dec-09 23:28N 29°45' W 095°06'2 4.2
2017-Dec-09 22:58N 29°44' W 095°08'3 7.4
2017-Dec-09 22:30N 29°45' W 095°11'3 6.3
2017-Dec-09 22:01N 29°43' W 095°15'2 3.1
2017-Dec-09 21:30N 29°43' W 095°16'0 0.0
2017-Dec-09 20:48N 29°43' W 095°16'0 0.0
2017-Dec-09 20:24N 29°43' W 095°16'0 0.0
2017-Dec-09 19:57N 29°43' W 095°16'0 0.0
2017-Dec-09 19:30N 29°43' W 095°16'0 0.0
2017-Dec-09 19:00N 29°43' W 095°16'0 0.0
2017-Dec-09 18:27N 29°43' W 095°16'0 0.0
2017-Dec-09 18:00N 29°43' W 095°16'0 0.0
2017-Dec-09 17:24N 29°43' W 095°16'0 0.0
2017-Dec-09 17:00N 29°43' W 095°16'4 6.7
2017-Dec-09 16:27N 29°44' W 095°12'3 7.5
2017-Dec-09 16:00N 29°44' W 095°08'4 4.0
2017-Dec-09 14:53N 29°47' W 095°04'0 0.0
2017-Dec-09 14:20N 29°47' W 095°04'0 0.0
2017-Dec-09 13:44N 29°47' W 095°04'0 0.0
2017-Dec-09 13:29N 29°47' W 095°04'0 0.0
2017-Dec-09 12:56N 29°47' W 095°04'0 0.0
2017-Dec-09 11:32N 29°47' W 095°04'0 0.0
2017-Dec-09 08:26N 29°47' W 095°04'0 0.3
2017-Dec-09 07:59N 29°47' W 095°04'0 0.8
2017-Dec-09 07:28N 29°47' W 095°04'0 0.5
2017-Dec-09 06:45N 29°47' W 095°04'0 0.0
2017-Dec-08 23:25N 29°47' W 095°04'0 0.1
2017-Dec-08 23:00N 29°47' W 095°04'1 2.4
2017-Dec-08 22:30N 29°46' W 095°05'2 4.7
2017-Dec-08 22:00N 29°44' W 095°03'2 4.6
2017-Dec-08 21:30N 29°42' W 095°01'2 4.2
2017-Dec-08 21:00N 29°41' W 094°59'3 7.0
2017-Dec-08 20:31N 29°38' W 094°58'4 7.3
2017-Dec-08 20:00N 29°35' W 094°56'3 7.0
2017-Dec-08 19:30N 29°32' W 094°54'70 2.3
2017-Dec-07 13:01N 30°04' W 093°42'0 5.8
2017-Dec-07 13:00N 30°04' W 093°42'2 3.7
2017-Dec-07 12:30N 30°04' W 093°40'3 5.2
2017-Dec-07 12:00N 30°04' W 093°37'3 5.2
2017-Dec-07 11:30N 30°04' W 093°34'3 5.3
2017-Dec-07 11:00N 30°04' W 093°31'3 5.4
2017-Dec-07 10:30N 30°04' W 093°27'3 5.4
2017-Dec-07 10:00N 30°04' W 093°24'2 4.8
2017-Dec-07 09:30N 30°04' W 093°21'2 4.0
2017-Dec-07 09:00N 30°05' W 093°20'1 2.8
2017-Dec-07 08:30N 30°06' W 093°19'0 0.0
2017-Dec-07 08:00N 30°06' W 093°19'0 0.1
2017-Dec-07 07:31N 30°06' W 093°19'0 0.0
2017-Dec-07 07:00N 30°06' W 093°19'0 0.0
2017-Dec-07 06:30N 30°06' W 093°19'0 0.2
2017-Dec-07 06:00N 30°06' W 093°19'1 1.5
2017-Dec-07 05:30N 30°06' W 093°18'1 1.8
2017-Dec-07 05:00N 30°05' W 093°17'1 2.8
2017-Dec-07 04:30N 30°04' W 093°16'1 1.5
2017-Dec-07 04:00N 30°03' W 093°16'0 0.0
2017-Dec-07 03:30N 30°03' W 093°16'0 0.0
2017-Dec-07 03:00N 30°03' W 093°16'0 0.0
2017-Dec-07 02:30N 30°03' W 093°16'0 0.0
2017-Dec-07 02:00N 30°03' W 093°16'1 0.3
2017-Dec-06 23:11N 30°02' W 093°16'0 2.5
2017-Dec-06 23:00N 30°02' W 093°15'1 1.3
2017-Dec-06 22:30N 30°02' W 093°15'0 0.1
2017-Dec-06 22:00N 30°02' W 093°15'0 0.0
2017-Dec-06 21:30N 30°02' W 093°15'0 0.0
2017-Dec-06 21:00N 30°02' W 093°15'  
2017-Dec-04 05:05N 29°60' W 090°25'0 0.0
2017-Dec-04 03:53N 29°60' W 090°25'  

Dump ship's entire track history